sensor_id;sensor_type;location;lat;lon;timestamp;temperature;humidity
66506;HTU21D;53332;51.082;5.832;2023-07-29T00:01:20;21.09;118.99
66506;HTU21D;53332;51.082;5.832;2023-07-29T00:03:46;21.11;118.99
66506;HTU21D;53332;51.082;5.832;2023-07-29T00:06:11;21.09;118.99
66506;HTU21D;53332;51.082;5.832;2023-07-29T00:08:37;21.08;118.99
66506;HTU21D;53332;51.082;5.832;2023-07-29T00:11:02;21.08;118.99
66506;HTU21D;53332;51.082;5.832;2023-07-29T00:13:28;21.07;118.99
66506;HTU21D;53332;51.082;5.832;2023-07-29T00:15:54;21.07;118.99
66506;HTU21D;53332;51.082;5.832;2023-07-29T00:18:22;21.07;118.99
66506;HTU21D;53332;51.082;5.832;2023-07-29T00:20:47;21.11;118.99
66506;HTU21D;53332;51.082;5.832;2023-07-29T00:23:13;21.18;118.99
66506;HTU21D;53332;51.082;5.832;2023-07-29T00:25:38;21.18;118.99
66506;HTU21D;53332;51.082;5.832;2023-07-29T00:28:04;21.17;118.99
66506;HTU21D;53332;51.082;5.832;2023-07-29T00:30:30;21.15;118.99
66506;HTU21D;53332;51.082;5.832;2023-07-29T00:32:55;21.18;118.99
66506;HTU21D;53332;51.082;5.832;2023-07-29T00:35:21;21.19;118.99
66506;HTU21D;53332;51.082;5.832;2023-07-29T00:37:46;21.17;118.99
66506;HTU21D;53332;51.082;5.832;2023-07-29T00:40:16;21.16;118.99
66506;HTU21D;53332;51.082;5.832;2023-07-29T00:42:44;21.11;118.99
66506;HTU21D;53332;51.082;5.832;2023-07-29T00:45:10;21.11;118.99
66506;HTU21D;53332;51.082;5.832;2023-07-29T00:47:35;21.11;118.99
66506;HTU21D;53332;51.082;5.832;2023-07-29T00:50:02;21.13;118.99
66506;HTU21D;53332;51.082;5.832;2023-07-29T00:52:28;21.14;118.99
66506;HTU21D;53332;51.082;5.832;2023-07-29T00:54:54;21.11;118.99
66506;HTU21D;53332;51.082;5.832;2023-07-29T00:57:20;21.09;118.99
66506;HTU21D;53332;51.082;5.832;2023-07-29T00:59:46;21.08;118.99
66506;HTU21D;53332;51.082;5.832;2023-07-29T01:02:12;21.08;118.99
66506;HTU21D;53332;51.082;5.832;2023-07-29T01:04:38;21.09;118.99
66506;HTU21D;53332;51.082;5.832;2023-07-29T01:07:21;21.08;118.99
66506;HTU21D;53332;51.082;5.832;2023-07-29T01:10:07;21.09;118.99
66506;HTU21D;53332;51.082;5.832;2023-07-29T01:18:37;21.09;118.99
66506;HTU21D;53332;51.082;5.832;2023-07-29T01:21:07;21.09;118.99
66506;HTU21D;53332;51.082;5.832;2023-07-29T01:23:34;21.07;118.99
66506;HTU21D;53332;51.082;5.832;2023-07-29T01:26:02;21.08;118.99
66506;HTU21D;53332;51.082;5.832;2023-07-29T01:28:28;21.06;118.99
66506;HTU21D;53332;51.082;5.832;2023-07-29T01:33:58;21.04;118.99
66506;HTU21D;53332;51.082;5.832;2023-07-29T01:36:28;21.03;118.99
66506;HTU21D;53332;51.082;5.832;2023-07-29T01:38:56;21.03;118.99
66506;HTU21D;53332;51.082;5.832;2023-07-29T01:41:24;21.03;118.99
66506;HTU21D;53332;51.082;5.832;2023-07-29T01:43:52;21.03;118.99
66506;HTU21D;53332;51.082;5.832;2023-07-29T01:46:18;21.02;118.99
66506;HTU21D;53332;51.082;5.832;2023-07-29T01:48:43;21.00;118.99
66506;HTU21D;53332;51.082;5.832;2023-07-29T01:51:11;21.01;118.99
66506;HTU21D;53332;51.082;5.832;2023-07-29T01:53:37;20.99;118.99
66506;HTU21D;53332;51.082;5.832;2023-07-29T01:56:02;20.99;118.99
66506;HTU21D;53332;51.082;5.832;2023-07-29T01:58:28;20.99;118.99
66506;HTU21D;53332;51.082;5.832;2023-07-29T02:00:53;20.98;118.99
66506;HTU21D;53332;51.082;5.832;2023-07-29T02:03:19;21.00;118.99
66506;HTU21D;53332;51.082;5.832;2023-07-29T02:05:44;21.04;118.99
66506;HTU21D;53332;51.082;5.832;2023-07-29T02:08:10;21.04;118.99
66506;HTU21D;53332;51.082;5.832;2023-07-29T02:10:36;21.04;118.99
66506;HTU21D;53332;51.082;5.832;2023-07-29T02:13:03;21.01;118.99
66506;HTU21D;53332;51.082;5.832;2023-07-29T02:15:28;20.98;118.99
66506;HTU21D;53332;51.082;5.832;2023-07-29T02:17:54;20.93;118.99
66506;HTU21D;53332;51.082;5.832;2023-07-29T02:20:20;20.91;118.99
66506;HTU21D;53332;51.082;5.832;2023-07-29T02:22:45;20.94;118.99
66506;HTU21D;53332;51.082;5.832;2023-07-29T02:25:11;20.91;118.99
66506;HTU21D;53332;51.082;5.832;2023-07-29T02:27:37;20.90;118.99
66506;HTU21D;53332;51.082;5.832;2023-07-29T02:30:03;20.92;118.99
66506;HTU21D;53332;51.082;5.832;2023-07-29T02:32:29;20.92;118.99
66506;HTU21D;53332;51.082;5.832;2023-07-29T02:34:54;20.93;118.99
66506;HTU21D;53332;51.082;5.832;2023-07-29T02:37:20;20.93;118.99
66506;HTU21D;53332;51.082;5.832;2023-07-29T02:39:45;20.95;118.99
66506;HTU21D;53332;51.082;5.832;2023-07-29T02:42:11;20.96;118.99
66506;HTU21D;53332;51.082;5.832;2023-07-29T02:44:37;20.95;118.99
66506;HTU21D;53332;51.082;5.832;2023-07-29T02:47:03;20.94;118.99
66506;HTU21D;53332;51.082;5.832;2023-07-29T02:49:28;20.94;118.99
66506;HTU21D;53332;51.082;5.832;2023-07-29T02:51:54;20.92;118.99
66506;HTU21D;53332;51.082;5.832;2023-07-29T02:54:20;20.87;118.99
66506;HTU21D;53332;51.082;5.832;2023-07-29T02:56:45;20.83;118.99
66506;HTU21D;53332;51.082;5.832;2023-07-29T02:59:11;20.78;118.99
66506;HTU21D;53332;51.082;5.832;2023-07-29T03:01:36;20.72;118.99
66506;HTU21D;53332;51.082;5.832;2023-07-29T03:04:02;20.66;118.99
66506;HTU21D;53332;51.082;5.832;2023-07-29T03:06:28;20.61;118.99
66506;HTU21D;53332;51.082;5.832;2023-07-29T03:08:53;20.55;118.99
66506;HTU21D;53332;51.082;5.832;2023-07-29T03:11:19;20.50;118.99
66506;HTU21D;53332;51.082;5.832;2023-07-29T03:13:44;20.46;118.99
66506;HTU21D;53332;51.082;5.832;2023-07-29T03:16:15;20.42;118.99
66506;HTU21D;53332;51.082;5.832;2023-07-29T03:18:43;20.42;118.99
66506;HTU21D;53332;51.082;5.832;2023-07-29T03:21:09;20.37;118.99
66506;HTU21D;53332;51.082;5.832;2023-07-29T03:23:35;20.35;118.99
66506;HTU21D;53332;51.082;5.832;2023-07-29T03:26:03;20.29;118.99
66506;HTU21D;53332;51.082;5.832;2023-07-29T03:28:36;20.21;118.99
66506;HTU21D;53332;51.082;5.832;2023-07-29T03:31:02;20.19;118.99
66506;HTU21D;53332;51.082;5.832;2023-07-29T03:33:29;20.18;118.99
66506;HTU21D;53332;51.082;5.832;2023-07-29T03:35:55;20.16;118.99
66506;HTU21D;53332;51.082;5.832;2023-07-29T03:38:20;20.14;118.99
66506;HTU21D;53332;51.082;5.832;2023-07-29T03:40:46;20.11;118.99
66506;HTU21D;53332;51.082;5.832;2023-07-29T03:43:12;20.06;118.99
66506;HTU21D;53332;51.082;5.832;2023-07-29T03:45:42;20.02;118.99
66506;HTU21D;53332;51.082;5.832;2023-07-29T03:48:08;20.01;118.99
66506;HTU21D;53332;51.082;5.832;2023-07-29T03:50:35;19.97;118.99
66506;HTU21D;53332;51.082;5.832;2023-07-29T03:53:04;19.96;118.99
66506;HTU21D;53332;51.082;5.832;2023-07-29T03:55:30;19.94;118.99
66506;HTU21D;53332;51.082;5.832;2023-07-29T03:58:00;19.96;118.99
66506;HTU21D;53332;51.082;5.832;2023-07-29T04:00:25;19.91;118.99
66506;HTU21D;53332;51.082;5.832;2023-07-29T04:02:51;19.90;118.99
66506;HTU21D;53332;51.082;5.832;2023-07-29T04:05:17;19.88;118.99
66506;HTU21D;53332;51.082;5.832;2023-07-29T04:07:43;19.86;118.99
66506;HTU21D;53332;51.082;5.832;2023-07-29T04:10:09;19.83;118.99
66506;HTU21D;53332;51.082;5.832;2023-07-29T04:12:35;19.77;118.99
66506;HTU21D;53332;51.082;5.832;2023-07-29T04:15:00;19.73;118.99
66506;HTU21D;53332;51.082;5.832;2023-07-29T04:17:26;19.75;118.99
66506;HTU21D;53332;51.082;5.832;2023-07-29T04:19:51;19.72;118.99
66506;HTU21D;53332;51.082;5.832;2023-07-29T04:22:17;19.75;118.99
66506;HTU21D;53332;51.082;5.832;2023-07-29T04:24:43;19.70;118.99
66506;HTU21D;53332;51.082;5.832;2023-07-29T04:27:08;19.68;118.99
66506;HTU21D;53332;51.082;5.832;2023-07-29T04:29:34;19.70;118.99
66506;HTU21D;53332;51.082;5.832;2023-07-29T04:32:02;19.72;118.99
66506;HTU21D;53332;51.082;5.832;2023-07-29T04:34:28;19.71;118.99
66506;HTU21D;53332;51.082;5.832;2023-07-29T04:36:53;19.68;118.99
66506;HTU21D;53332;51.082;5.832;2023-07-29T04:39:19;19.62;118.99
66506;HTU21D;53332;51.082;5.832;2023-07-29T04:41:44;19.61;118.99
66506;HTU21D;53332;51.082;5.832;2023-07-29T04:44:10;19.62;118.99
66506;HTU21D;53332;51.082;5.832;2023-07-29T04:46:36;19.58;118.99
66506;HTU21D;53332;51.082;5.832;2023-07-29T04:49:02;19.54;118.99
66506;HTU21D;53332;51.082;5.832;2023-07-29T04:51:28;19.54;118.99
66506;HTU21D;53332;51.082;5.832;2023-07-29T04:53:53;19.57;118.99
66506;HTU21D;53332;51.082;5.832;2023-07-29T04:56:19;19.60;118.99
66506;HTU21D;53332;51.082;5.832;2023-07-29T04:58:45;19.63;118.99
66506;HTU21D;53332;51.082;5.832;2023-07-29T05:01:11;19.66;118.99
66506;HTU21D;53332;51.082;5.832;2023-07-29T05:03:36;19.68;118.99
66506;HTU21D;53332;51.082;5.832;2023-07-29T05:06:03;19.67;118.99
66506;HTU21D;53332;51.082;5.832;2023-07-29T05:08:29;19.63;118.99
66506;HTU21D;53332;51.082;5.832;2023-07-29T05:10:54;19.62;118.99
66506;HTU21D;53332;51.082;5.832;2023-07-29T05:13:22;19.62;118.99
66506;HTU21D;53332;51.082;5.832;2023-07-29T05:15:48;19.65;118.99
66506;HTU21D;53332;51.082;5.832;2023-07-29T05:18:14;19.66;118.99
66506;HTU21D;53332;51.082;5.832;2023-07-29T05:20:40;19.69;118.99
66506;HTU21D;53332;51.082;5.832;2023-07-29T05:23:06;19.70;118.99
66506;HTU21D;53332;51.082;5.832;2023-07-29T05:25:32;19.70;118.99
66506;HTU21D;53332;51.082;5.832;2023-07-29T05:28:00;19.67;118.99
66506;HTU21D;53332;51.082;5.832;2023-07-29T05:30:26;19.65;118.99
66506;HTU21D;53332;51.082;5.832;2023-07-29T05:32:52;19.62;118.99
66506;HTU21D;53332;51.082;5.832;2023-07-29T05:35:17;19.61;118.99
66506;HTU21D;53332;51.082;5.832;2023-07-29T05:37:43;19.58;118.99
66506;HTU21D;53332;51.082;5.832;2023-07-29T05:40:09;19.57;118.99
66506;HTU21D;53332;51.082;5.832;2023-07-29T05:42:37;19.55;118.99
66506;HTU21D;53332;51.082;5.832;2023-07-29T05:45:02;19.54;118.99
66506;HTU21D;53332;51.082;5.832;2023-07-29T05:47:28;19.56;118.99
66506;HTU21D;53332;51.082;5.832;2023-07-29T05:49:53;19.56;118.99
66506;HTU21D;53332;51.082;5.832;2023-07-29T05:52:19;19.55;118.99
66506;HTU21D;53332;51.082;5.832;2023-07-29T05:54:45;19.58;118.99
66506;HTU21D;53332;51.082;5.832;2023-07-29T05:57:11;19.59;118.99
66506;HTU21D;53332;51.082;5.832;2023-07-29T05:59:37;19.60;118.99
66506;HTU21D;53332;51.082;5.832;2023-07-29T06:02:03;19.65;118.99
66506;HTU21D;53332;51.082;5.832;2023-07-29T06:04:29;19.69;118.99
66506;HTU21D;53332;51.082;5.832;2023-07-29T06:06:54;19.69;118.99
66506;HTU21D;53332;51.082;5.832;2023-07-29T06:09:21;19.71;118.99
66506;HTU21D;53332;51.082;5.832;2023-07-29T06:11:47;19.72;118.99
66506;HTU21D;53332;51.082;5.832;2023-07-29T06:14:12;19.74;118.99
66506;HTU21D;53332;51.082;5.832;2023-07-29T06:16:38;19.75;118.99
66506;HTU21D;53332;51.082;5.832;2023-07-29T06:19:04;19.77;118.99
66506;HTU21D;53332;51.082;5.832;2023-07-29T06:21:29;19.85;118.99
66506;HTU21D;53332;51.082;5.832;2023-07-29T06:23:55;19.86;118.99
66506;HTU21D;53332;51.082;5.832;2023-07-29T06:26:20;19.87;118.99
66506;HTU21D;53332;51.082;5.832;2023-07-29T06:28:46;19.89;118.99
66506;HTU21D;53332;51.082;5.832;2023-07-29T06:31:11;19.97;118.99
66506;HTU21D;53332;51.082;5.832;2023-07-29T06:33:37;20.03;118.99
66506;HTU21D;53332;51.082;5.832;2023-07-29T06:36:03;20.03;118.99
66506;HTU21D;53332;51.082;5.832;2023-07-29T06:38:29;20.05;118.99
66506;HTU21D;53332;51.082;5.832;2023-07-29T06:40:55;20.09;118.99
66506;HTU21D;53332;51.082;5.832;2023-07-29T06:43:20;20.07;118.99
66506;HTU21D;53332;51.082;5.832;2023-07-29T06:45:46;20.09;118.99
66506;HTU21D;53332;51.082;5.832;2023-07-29T06:48:12;20.09;118.99
66506;HTU21D;53332;51.082;5.832;2023-07-29T06:50:37;20.11;118.99
66506;HTU21D;53332;51.082;5.832;2023-07-29T06:53:03;20.13;118.99
66506;HTU21D;53332;51.082;5.832;2023-07-29T06:55:28;20.21;118.99
66506;HTU21D;53332;51.082;5.832;2023-07-29T06:57:54;20.40;118.99
66506;HTU21D;53332;51.082;5.832;2023-07-29T07:00:19;20.64;118.99
66506;HTU21D;53332;51.082;5.832;2023-07-29T07:02:45;20.90;118.99
66506;HTU21D;53332;51.082;5.832;2023-07-29T07:05:10;21.13;118.99
66506;HTU21D;53332;51.082;5.832;2023-07-29T07:07:36;21.32;118.99
66506;HTU21D;53332;51.082;5.832;2023-07-29T07:10:03;21.49;118.99
66506;HTU21D;53332;51.082;5.832;2023-07-29T07:12:29;21.73;118.99
66506;HTU21D;53332;51.082;5.832;2023-07-29T07:14:54;21.96;118.76
66506;HTU21D;53332;51.082;5.832;2023-07-29T07:17:20;22.22;117.33
66506;HTU21D;53332;51.082;5.832;2023-07-29T07:19:45;22.43;115.59
66506;HTU21D;53332;51.082;5.832;2023-07-29T07:22:11;22.66;113.63
66506;HTU21D;53332;51.082;5.832;2023-07-29T07:24:37;22.79;110.75
66506;HTU21D;53332;51.082;5.832;2023-07-29T07:27:03;22.95;108.17
66506;HTU21D;53332;51.082;5.832;2023-07-29T07:29:28;23.08;106.98
66506;HTU21D;53332;51.082;5.832;2023-07-29T07:31:56;23.22;105.65
66506;HTU21D;53332;51.082;5.832;2023-07-29T07:34:21;23.29;103.51
66506;HTU21D;53332;51.082;5.832;2023-07-29T07:36:47;23.28;101.18
66506;HTU21D;53332;51.082;5.832;2023-07-29T07:39:13;23.31;100.35
66506;HTU21D;53332;51.082;5.832;2023-07-29T07:41:38;23.26;98.79
66506;HTU21D;53332;51.082;5.832;2023-07-29T07:44:04;23.24;98.39
66506;HTU21D;53332;51.082;5.832;2023-07-29T07:46:29;23.40;98.33
66506;HTU21D;53332;51.082;5.832;2023-07-29T07:48:55;23.59;96.65
66506;HTU21D;53332;51.082;5.832;2023-07-29T07:51:21;23.58;94.48
66506;HTU21D;53332;51.082;5.832;2023-07-29T07:53:46;23.54;94.47
66506;HTU21D;53332;51.082;5.832;2023-07-29T07:56:12;23.53;94.14
66506;HTU21D;53332;51.082;5.832;2023-07-29T07:58:38;23.49;93.40
66506;HTU21D;53332;51.082;5.832;2023-07-29T08:01:05;23.60;94.17
66506;HTU21D;53332;51.082;5.832;2023-07-29T08:03:32;23.75;92.98
66506;HTU21D;53332;51.082;5.832;2023-07-29T08:05:58;23.83;91.50
66506;HTU21D;53332;51.082;5.832;2023-07-29T08:08:25;23.75;90.59
66506;HTU21D;53332;51.082;5.832;2023-07-29T08:10:55;23.56;90.56
66506;HTU21D;53332;51.082;5.832;2023-07-29T08:13:22;23.41;91.21
66506;HTU21D;53332;51.082;5.832;2023-07-29T08:15:48;23.39;91.49
66506;HTU21D;53332;51.082;5.832;2023-07-29T08:18:14;23.45;92.12
66506;HTU21D;53332;51.082;5.832;2023-07-29T08:20:40;23.55;91.50
66506;HTU21D;53332;51.082;5.832;2023-07-29T08:23:05;23.58;89.73
66506;HTU21D;53332;51.082;5.832;2023-07-29T08:25:31;23.54;90.33
66506;HTU21D;53332;51.082;5.832;2023-07-29T08:27:56;23.53;89.87
66506;HTU21D;53332;51.082;5.832;2023-07-29T08:30:22;23.45;89.86
66506;HTU21D;53332;51.082;5.832;2023-07-29T08:32:47;23.38;90.37
66506;HTU21D;53332;51.082;5.832;2023-07-29T08:35:13;23.34;91.31
66506;HTU21D;53332;51.082;5.832;2023-07-29T08:37:38;23.26;92.30
66506;HTU21D;53332;51.082;5.832;2023-07-29T08:40:05;23.14;92.64
66506;HTU21D;53332;51.082;5.832;2023-07-29T08:42:32;23.01;93.24
66506;HTU21D;53332;51.082;5.832;2023-07-29T08:45:06;22.87;93.90
66506;HTU21D;53332;51.082;5.832;2023-07-29T08:47:36;22.80;94.43
66506;HTU21D;53332;51.082;5.832;2023-07-29T08:50:03;22.72;95.23
66506;HTU21D;53332;51.082;5.832;2023-07-29T08:52:29;22.69;95.39
66506;HTU21D;53332;51.082;5.832;2023-07-29T08:54:55;22.57;95.45
66506;HTU21D;53332;51.082;5.832;2023-07-29T08:57:22;22.53;96.26
66506;HTU21D;53332;51.082;5.832;2023-07-29T08:59:48;22.51;96.39
66506;HTU21D;53332;51.082;5.832;2023-07-29T09:02:14;22.50;97.05
66506;HTU21D;53332;51.082;5.832;2023-07-29T09:04:39;22.43;96.68
66506;HTU21D;53332;51.082;5.832;2023-07-29T09:07:06;22.36;96.58
66506;HTU21D;53332;51.082;5.832;2023-07-29T09:09:32;22.35;96.97
66506;HTU21D;53332;51.082;5.832;2023-07-29T09:11:58;22.41;96.94
66506;HTU21D;53332;51.082;5.832;2023-07-29T09:14:24;22.49;97.23
66506;HTU21D;53332;51.082;5.832;2023-07-29T09:16:50;22.62;96.56
66506;HTU21D;53332;51.082;5.832;2023-07-29T09:19:16;22.64;95.04
66506;HTU21D;53332;51.082;5.832;2023-07-29T09:21:42;22.70;95.98
66506;HTU21D;53332;51.082;5.832;2023-07-29T09:24:08;22.86;96.39
66506;HTU21D;53332;51.082;5.832;2023-07-29T09:26:35;22.97;95.04
66506;HTU21D;53332;51.082;5.832;2023-07-29T09:29:00;22.99;93.30
66506;HTU21D;53332;51.082;5.832;2023-07-29T09:31:28;23.11;93.62
66506;HTU21D;53332;51.082;5.832;2023-07-29T09:34:01;23.27;92.93
66506;HTU21D;53332;51.082;5.832;2023-07-29T09:36:30;23.47;91.68
66506;HTU21D;53332;51.082;5.832;2023-07-29T09:38:57;23.71;90.50
66506;HTU21D;53332;51.082;5.832;2023-07-29T09:41:24;23.72;89.16
66506;HTU21D;53332;51.082;5.832;2023-07-29T09:44:01;23.79;90.37
66506;HTU21D;53332;51.082;5.832;2023-07-29T09:46:36;23.91;89.97
66506;HTU21D;53332;51.082;5.832;2023-07-29T09:49:07;24.12;89.07
66506;HTU21D;53332;51.082;5.832;2023-07-29T09:51:38;24.19;87.86
66506;HTU21D;53332;51.082;5.832;2023-07-29T09:54:04;24.20;87.23
66506;HTU21D;53332;51.082;5.832;2023-07-29T09:56:30;24.21;86.61
66506;HTU21D;53332;51.082;5.832;2023-07-29T09:58:56;24.13;86.23
66506;HTU21D;53332;51.082;5.832;2023-07-29T10:01:23;24.09;86.02
66506;HTU21D;53332;51.082;5.832;2023-07-29T10:03:49;24.02;86.52
66506;HTU21D;53332;51.082;5.832;2023-07-29T10:06:15;23.96;87.36
66506;HTU21D;53332;51.082;5.832;2023-07-29T10:08:43;23.94;87.38
66506;HTU21D;53332;51.082;5.832;2023-07-29T10:11:10;23.89;86.99
66506;HTU21D;53332;51.082;5.832;2023-07-29T10:13:37;23.80;86.70
66506;HTU21D;53332;51.082;5.832;2023-07-29T10:16:04;23.74;87.12
66506;HTU21D;53332;51.082;5.832;2023-07-29T10:18:31;23.71;87.26
66506;HTU21D;53332;51.082;5.832;2023-07-29T10:21:00;23.70;86.49
66506;HTU21D;53332;51.082;5.832;2023-07-29T10:23:27;23.59;86.91
66506;HTU21D;53332;51.082;5.832;2023-07-29T10:26:04;23.67;86.48
66506;HTU21D;53332;51.082;5.832;2023-07-29T10:28:32;23.81;86.42
66506;HTU21D;53332;51.082;5.832;2023-07-29T10:30:58;23.85;86.32
66506;HTU21D;53332;51.082;5.832;2023-07-29T10:33:25;23.88;86.35
66506;HTU21D;53332;51.082;5.832;2023-07-29T10:35:53;24.11;87.17
66506;HTU21D;53332;51.082;5.832;2023-07-29T10:38:22;24.44;86.32
66506;HTU21D;53332;51.082;5.832;2023-07-29T10:40:52;24.60;84.26
66506;HTU21D;53332;51.082;5.832;2023-07-29T10:43:33;24.66;81.78
66506;HTU21D;53332;51.082;5.832;2023-07-29T10:46:22;24.66;81.84
66506;HTU21D;53332;51.082;5.832;2023-07-29T10:51:36;24.49;81.72
66506;HTU21D;53332;51.082;5.832;2023-07-29T10:54:10;24.44;82.28
66506;HTU21D;53332;51.082;5.832;2023-07-29T10:56:41;24.42;82.23
66506;HTU21D;53332;51.082;5.832;2023-07-29T11:02:06;24.24;83.11
66506;HTU21D;53332;51.082;5.832;2023-07-29T11:04:31;24.23;83.03
66506;HTU21D;53332;51.082;5.832;2023-07-29T11:15:23;24.74;82.91
66506;HTU21D;53332;51.082;5.832;2023-07-29T11:17:57;25.02;81.74
66506;HTU21D;53332;51.082;5.832;2023-07-29T11:20:33;25.19;81.72
66506;HTU21D;53332;51.082;5.832;2023-07-29T11:23:02;25.13;80.31
66506;HTU21D;53332;51.082;5.832;2023-07-29T11:25:30;25.03;79.83
66506;HTU21D;53332;51.082;5.832;2023-07-29T11:27:58;24.92;80.62
66506;HTU21D;53332;51.082;5.832;2023-07-29T11:30:24;24.88;81.86
66506;HTU21D;53332;51.082;5.832;2023-07-29T11:32:54;24.82;81.08
66506;HTU21D;53332;51.082;5.832;2023-07-29T11:35:21;24.71;80.45
66506;HTU21D;53332;51.082;5.832;2023-07-29T11:37:49;24.77;80.81
66506;HTU21D;53332;51.082;5.832;2023-07-29T11:42:42;24.93;81.59
66506;HTU21D;53332;51.082;5.832;2023-07-29T11:45:08;24.93;82.15
66506;HTU21D;53332;51.082;5.832;2023-07-29T11:47:35;24.89;81.94
66506;HTU21D;53332;51.082;5.832;2023-07-29T11:50:06;24.85;81.88
66506;HTU21D;53332;51.082;5.832;2023-07-29T11:52:36;24.87;82.03
66506;HTU21D;53332;51.082;5.832;2023-07-29T11:55:03;24.82;81.96
66506;HTU21D;53332;51.082;5.832;2023-07-29T11:57:30;24.74;82.78
66506;HTU21D;53332;51.082;5.832;2023-07-29T11:59:57;24.68;83.68
66506;HTU21D;53332;51.082;5.832;2023-07-29T12:02:24;24.65;84.03
66506;HTU21D;53332;51.082;5.832;2023-07-29T12:04:52;24.66;84.45
66506;HTU21D;53332;51.082;5.832;2023-07-29T12:07:19;24.63;84.90
66506;HTU21D;53332;51.082;5.832;2023-07-29T12:09:46;24.60;85.32
66506;HTU21D;53332;51.082;5.832;2023-07-29T12:12:12;24.55;86.08
66506;HTU21D;53332;51.082;5.832;2023-07-29T12:14:37;24.50;86.93
66506;HTU21D;53332;51.082;5.832;2023-07-29T12:17:05;24.43;89.12
66506;HTU21D;53332;51.082;5.832;2023-07-29T12:19:36;24.34;90.15
66506;HTU21D;53332;51.082;5.832;2023-07-29T12:22:03;24.32;90.85
66506;HTU21D;53332;51.082;5.832;2023-07-29T12:24:30;24.15;91.89
66506;HTU21D;53332;51.082;5.832;2023-07-29T12:26:56;24.15;93.53
66506;HTU21D;53332;51.082;5.832;2023-07-29T12:29:22;24.23;94.70
66506;HTU21D;53332;51.082;5.832;2023-07-29T12:31:57;24.24;94.44
66506;HTU21D;53332;51.082;5.832;2023-07-29T12:34:26;24.16;94.03
66506;HTU21D;53332;51.082;5.832;2023-07-29T12:36:52;24.12;94.49
66506;HTU21D;53332;51.082;5.832;2023-07-29T12:39:26;24.05;94.18
66506;HTU21D;53332;51.082;5.832;2023-07-29T12:41:54;23.95;94.85
66506;HTU21D;53332;51.082;5.832;2023-07-29T12:44:23;23.79;94.60
66506;HTU21D;53332;51.082;5.832;2023-07-29T12:46:48;23.67;95.35
66506;HTU21D;53332;51.082;5.832;2023-07-29T12:49:14;23.59;95.84
66506;HTU21D;53332;51.082;5.832;2023-07-29T12:51:40;23.51;96.22
66506;HTU21D;53332;51.082;5.832;2023-07-29T12:54:06;23.38;97.05
66506;HTU21D;53332;51.082;5.832;2023-07-29T12:56:32;23.26;98.16
66506;HTU21D;53332;51.082;5.832;2023-07-29T12:58:59;23.18;99.35
66506;HTU21D;53332;51.082;5.832;2023-07-29T13:01:25;23.13;99.82
66506;HTU21D;53332;51.082;5.832;2023-07-29T13:03:51;23.10;101.22
66506;HTU21D;53332;51.082;5.832;2023-07-29T13:06:17;23.02;102.28
66506;HTU21D;53332;51.082;5.832;2023-07-29T13:08:43;23.05;103.61
66506;HTU21D;53332;51.082;5.832;2023-07-29T13:11:09;22.96;104.01
66506;HTU21D;53332;51.082;5.832;2023-07-29T13:13:35;22.82;104.51
66506;HTU21D;53332;51.082;5.832;2023-07-29T13:16:00;22.65;105.77
66506;HTU21D;53332;51.082;5.832;2023-07-29T13:18:26;22.53;108.09
66506;HTU21D;53332;51.082;5.832;2023-07-29T13:20:52;22.42;110.14
66506;HTU21D;53332;51.082;5.832;2023-07-29T13:23:18;22.37;112.53
66506;HTU21D;53332;51.082;5.832;2023-07-29T13:25:43;22.35;113.36
66506;HTU21D;53332;51.082;5.832;2023-07-29T13:28:10;22.34;114.76
66506;HTU21D;53332;51.082;5.832;2023-07-29T13:30:35;22.37;116.64
66506;HTU21D;53332;51.082;5.832;2023-07-29T13:33:01;22.44;117.92
66506;HTU21D;53332;51.082;5.832;2023-07-29T13:35:27;22.54;118.20
66506;HTU21D;53332;51.082;5.832;2023-07-29T13:37:52;22.61;117.02
66506;HTU21D;53332;51.082;5.832;2023-07-29T13:40:18;22.71;116.90
66506;HTU21D;53332;51.082;5.832;2023-07-29T13:42:43;22.69;116.03
66506;HTU21D;53332;51.082;5.832;2023-07-29T13:45:09;22.71;115.99
66506;HTU21D;53332;51.082;5.832;2023-07-29T13:47:35;22.69;114.38
66506;HTU21D;53332;51.082;5.832;2023-07-29T13:50:01;22.71;113.64
66506;HTU21D;53332;51.082;5.832;2023-07-29T13:52:27;22.69;112.61
66506;HTU21D;53332;51.082;5.832;2023-07-29T13:54:52;22.63;111.58
66506;HTU21D;53332;51.082;5.832;2023-07-29T13:57:18;22.62;110.87
66506;HTU21D;53332;51.082;5.832;2023-07-29T13:59:43;22.63;111.25
66506;HTU21D;53332;51.082;5.832;2023-07-29T14:02:08;22.64;111.15
66506;HTU21D;53332;51.082;5.832;2023-07-29T14:04:34;22.65;112.44
66506;HTU21D;53332;51.082;5.832;2023-07-29T14:07:00;22.69;113.09
66506;HTU21D;53332;51.082;5.832;2023-07-29T14:09:26;22.75;113.28
66506;HTU21D;53332;51.082;5.832;2023-07-29T14:11:54;22.80;114.12
66506;HTU21D;53332;51.082;5.832;2023-07-29T14:14:20;22.92;115.30
66506;HTU21D;53332;51.082;5.832;2023-07-29T14:16:45;23.02;115.48
66506;HTU21D;53332;51.082;5.832;2023-07-29T14:19:12;23.07;112.32
66506;HTU21D;53332;51.082;5.832;2023-07-29T14:21:38;23.11;109.59
66506;HTU21D;53332;51.082;5.832;2023-07-29T14:24:03;23.06;109.59
66506;HTU21D;53332;51.082;5.832;2023-07-29T14:26:29;23.00;108.75
66506;HTU21D;53332;51.082;5.832;2023-07-29T14:28:54;23.02;109.64
66506;HTU21D;53332;51.082;5.832;2023-07-29T14:31:20;23.13;112.60
66506;HTU21D;53332;51.082;5.832;2023-07-29T14:33:45;23.28;111.60
66506;HTU21D;53332;51.082;5.832;2023-07-29T14:36:11;23.42;111.87
66506;HTU21D;53332;51.082;5.832;2023-07-29T14:38:36;23.57;111.32
66506;HTU21D;53332;51.082;5.832;2023-07-29T14:41:03;23.69;110.94
66506;HTU21D;53332;51.082;5.832;2023-07-29T14:43:30;23.84;110.26
66506;HTU21D;53332;51.082;5.832;2023-07-29T14:45:56;23.90;108.85
66506;HTU21D;53332;51.082;5.832;2023-07-29T14:48:21;24.03;109.31
66506;HTU21D;53332;51.082;5.832;2023-07-29T14:50:47;24.15;108.49
66506;HTU21D;53332;51.082;5.832;2023-07-29T14:53:13;24.27;107.59
66506;HTU21D;53332;51.082;5.832;2023-07-29T14:55:38;24.38;106.66
66506;HTU21D;53332;51.082;5.832;2023-07-29T14:58:04;24.44;105.22
66506;HTU21D;53332;51.082;5.832;2023-07-29T15:00:29;24.50;104.80
66506;HTU21D;53332;51.082;5.832;2023-07-29T15:02:55;24.59;104.82
66506;HTU21D;53332;51.082;5.832;2023-07-29T15:05:21;24.63;102.87
66506;HTU21D;53332;51.082;5.832;2023-07-29T15:07:47;24.60;102.76
66506;HTU21D;53332;51.082;5.832;2023-07-29T15:10:14;24.55;102.38
66506;HTU21D;53332;51.082;5.832;2023-07-29T15:12:41;24.57;102.47
66506;HTU21D;53332;51.082;5.832;2023-07-29T15:15:07;24.69;102.00
66506;HTU21D;53332;51.082;5.832;2023-07-29T15:17:33;24.76;102.84
66506;HTU21D;53332;51.082;5.832;2023-07-29T15:19:59;24.85;101.57
66506;HTU21D;53332;51.082;5.832;2023-07-29T15:22:24;24.94;100.03
66506;HTU21D;53332;51.082;5.832;2023-07-29T15:24:50;25.04;100.64
66506;HTU21D;53332;51.082;5.832;2023-07-29T15:27:15;25.08;98.19
66506;HTU21D;53332;51.082;5.832;2023-07-29T15:29:41;25.10;97.65